Time;durP1;ratioP1;P1;durP2;ratioP2;P2;SDS_P1;SDS_P2;PMS_P1;PMS_P2;Temp;Humidity;BMP_temperature;BMP_pressure;BME280_temperature;BME280_humidity;BME280_pressure;Samples;Min_cycle;Max_cycle;Signal;HPM_P1;HPM_P2
2022/01/03 00:01:44;;;;;;;30.85;19.92;;;5.10;85.10;;;3.83;80.80;96331.84;3941334;35;20363;-84
2022/01/03 00:04:11;;;;;;;31.83;20.50;;;5.10;85.20;;;3.83;80.58;96340.81;3950363;34;20057;-84
2022/01/03 00:06:40;;;;;;;29.23;18.45;;;5.10;85.10;;;3.84;80.58;96341.63;3920955;35;20695;-84
2022/01/03 00:09:07;;;;;;;30.05;20.23;;;5.10;85.20;;;3.83;80.67;96345.38;3946954;35;20319;-84
2022/01/03 00:11:35;;;;;;;27.75;18.45;;;5.10;85.10;;;3.83;80.64;96350.81;3944266;35;20329;-84
2022/01/03 00:14:01;;;;;;;27.73;18.30;;;5.10;85.20;;;3.83;80.75;96350.81;3967076;35;19994;-84
2022/01/03 00:16:28;;;;;;;26.10;18.60;;;5.10;85.10;;;3.82;80.86;96349.16;3942381;35;20310;-84
2022/01/03 00:18:54;;;;;;;26.35;18.42;;;5.10;85.20;;;3.82;80.71;96349.16;3964639;34;20042;-84
2022/01/03 00:21:29;;;;;;;26.00;17.00;;;5.10;85.10;;;3.83;80.87;96358.94;3942238;35;20567;-84
2022/01/03 00:24:31;;;;;;;28.02;18.55;;;5.10;85.20;;;3.83;80.95;96345.38;3940930;35;19990;-83
2022/01/03 00:27:03;;;;;;;27.30;18.42;;;5.10;85.30;;;3.83;80.72;96334.56;3918810;35;20352;-84
2022/01/03 00:29:55;;;;;;;27.15;18.17;;;5.10;85.40;;;3.82;80.64;96309.38;3939427;35;20333;-84
2022/01/03 00:32:21;;;;;;;27.48;17.70;;;5.10;85.20;;;3.82;80.94;96316.66;3958658;35;20340;-84
2022/01/03 00:34:47;;;;;;;27.73;18.77;;;5.10;85.20;;;3.80;81.03;96314.19;3899170;35;20078;-83
2022/01/03 00:37:14;;;;;;;26.95;17.50;;;5.10;85.30;;;3.81;80.77;96310.41;3941313;35;20631;-84
2022/01/03 00:39:41;;;;;;;27.42;17.50;;;5.10;85.20;;;3.80;81.27;96307.94;3942580;35;20418;-84
2022/01/03 00:42:07;;;;;;;26.70;17.98;;;5.10;85.30;;;3.80;80.69;96308.75;3920185;35;20058;-84
2022/01/03 00:44:33;;;;;;;28.92;18.48;;;5.10;85.30;;;3.80;80.81;96302.53;3898301;35;20014;-85
2022/01/03 00:47:00;;;;;;;26.95;18.30;;;5.10;85.40;;;3.81;80.82;96298.75;3919681;35;20343;-85
2022/01/03 00:49:26;;;;;;;26.75;17.02;;;5.10;85.30;;;3.80;80.92;96287.09;3919942;35;20283;-84
2022/01/03 00:51:52;;;;;;;27.35;17.65;;;5.10;85.30;;;3.80;80.67;96287.09;3920705;35;20305;-84
2022/01/03 00:54:19;;;;;;;23.92;16.15;;;5.10;85.40;;;3.77;81.06;96279.41;3919237;35;20298;-85
2022/01/03 00:56:47;;;;;;;26.63;16.90;;;5.00;85.30;;;3.79;81.16;96273.78;3934310;35;20006;-86
2022/01/03 00:59:35;;;;;;;24.80;17.45;;;5.00;85.40;;;3.78;81.13;96258.59;3964946;35;20010;-85
2022/01/03 01:02:02;;;;;;;23.98;16.38;;;5.10;85.40;;;3.80;81.05;96256.50;3984885;35;20301;-85
2022/01/03 01:04:28;;;;;;;26.33;17.20;;;5.00;85.20;;;3.78;81.20;96232.34;3945680;35;20013;-85
2022/01/03 01:06:58;;;;;;;24.80;16.08;;;5.00;85.30;;;3.79;81.27;96219.63;3947367;35;20367;-86
2022/01/03 01:09:27;;;;;;;23.70;15.35;;;5.00;85.30;;;3.79;80.94;96215.03;3966524;35;20278;-85
2022/01/03 01:11:56;;;;;;;23.50;15.40;;;5.10;85.40;;;3.78;81.16;96196.31;3945204;35;20013;-84
2022/01/03 01:14:27;;;;;;;22.70;15.70;;;5.10;85.60;;;3.77;81.36;96183.84;3926733;35;20310;-85
2022/01/03 01:16:54;;;;;;;25.50;16.95;;;5.00;85.50;;;3.78;81.24;96174.66;3945476;35;20302;-84
2022/01/03 01:19:21;;;;;;;24.33;15.80;;;5.00;85.50;;;3.78;80.72;96180.06;3988012;35;20320;-85
2022/01/03 01:21:51;;;;;;;22.08;14.98;;;5.00;85.40;;;3.76;80.77;96174.88;3968110;35;20014;-85
2022/01/03 01:24:20;;;;;;;21.88;15.05;;;5.10;85.40;;;3.77;80.89;96167.59;3990651;34;20630;-84
2022/01/03 01:29:31;;;;;;;20.90;13.65;;;5.00;85.30;;;3.76;80.88;96180.28;3975935;34;20084;-85
2022/01/03 01:32:02;;;;;;;21.63;13.75;;;5.00;85.40;;;3.77;81.25;96167.59;3946711;34;20325;-84
2022/01/03 01:34:30;;;;;;;17.63;13.23;;;5.00;85.50;;;3.77;81.27;96156.75;3925009;35;20299;-84
2022/01/03 01:37:00;;;;;;;19.02;12.43;;;5.00;85.60;;;3.77;81.38;96162.16;3931523;35;20417;-84
2022/01/03 01:39:29;;;;;;;21.00;13.95;;;5.00;85.50;;;3.76;80.76;96160.53;3926057;34;20274;-85
2022/01/03 01:42:03;;;;;;;21.40;13.05;;;5.00;85.40;;;3.76;81.00;96152.41;3967945;35;20310;-85
2022/01/03 01:44:35;;;;;;;19.02;13.15;;;5.00;85.40;;;3.76;81.12;96157.81;3973287;35;20257;-85
2022/01/03 01:47:05;;;;;;;18.60;12.50;;;5.00;85.50;;;3.77;81.11;96140.50;3957721;35;20530;-85
2022/01/03 01:49:44;;;;;;;19.25;12.65;;;5.00;85.40;;;3.77;80.81;96148.63;3983135;34;20341;-85
2022/01/03 01:52:19;;;;;;;18.98;12.57;;;5.00;85.40;;;3.76;80.97;96131.53;3963827;35;19998;-85
2022/01/03 01:55:12;;;;;;;17.05;11.85;;;5.00;85.40;;;3.76;80.82;96122.63;3944300;35;20308;-84
2022/01/03 01:58:12;;;;;;;18.50;12.40;;;5.00;85.40;;;3.77;81.23;96137.81;3979413;35;20346;-85
2022/01/03 02:00:48;;;;;;;18.45;12.38;;;5.00;85.40;;;3.76;80.96;96144.28;3957892;35;20070;-85
2022/01/03 02:03:58;;;;;;;17.00;11.85;;;5.00;85.40;;;3.77;80.91;96154.06;4002626;35;20200;-84
2022/01/03 02:06:47;;;;;;;17.20;11.52;;;5.00;85.40;;;3.76;81.24;96166.75;3984832;35;20386;-85
2022/01/03 02:09:30;;;;;;;15.80;10.48;;;5.00;85.40;;;3.77;81.10;96173.00;3902300;35;20142;-84
2022/01/03 02:11:58;;;;;;;15.52;10.57;;;5.00;85.50;;;3.76;80.86;96155.91;3941328;35;20447;-85
2022/01/03 02:14:37;;;;;;;14.93;10.63;;;5.00;85.40;;;3.76;80.95;96145.09;3904073;35;20010;-84
2022/01/03 02:17:06;;;;;;;17.15;10.85;;;5.00;85.40;;;3.77;80.94;96156.75;3904544;35;20011;-85
2022/01/03 02:19:37;;;;;;;16.05;11.30;;;5.00;85.50;;;3.76;81.11;96171.34;3942470;35;20010;-85
2022/01/03 02:22:04;;;;;;;16.30;11.00;;;5.00;85.40;;;3.76;80.79;96171.34;3901204;35;20329;-86
2022/01/03 02:24:40;;;;;;;14.70;10.68;;;5.00;85.50;;;3.75;80.98;96177.81;3904183;35;20077;-85
2022/01/03 02:27:07;;;;;;;15.75;10.45;;;5.00;85.40;;;3.75;80.96;96181.34;3898853;35;20344;-85
2022/01/03 02:29:33;;;;;;;13.68;9.85;;;5.00;85.50;;;3.74;80.86;96184.28;3898839;35;20338;-84
2022/01/03 02:31:59;;;;;;;17.15;10.60;;;5.00;85.50;;;3.75;81.28;96191.34;3941369;34;20017;-85
2022/01/03 02:34:29;;;;;;;14.07;9.27;;;5.00;85.60;;;3.74;81.37;96190.53;3964359;34;20414;-85
2022/01/03 02:36:56;;;;;;;13.85;9.65;;;5.00;85.60;;;3.74;81.23;96176.16;3905250;34;20286;-85
2022/01/03 02:39:22;;;;;;;15.57;10.35;;;5.00;85.50;;;3.75;81.36;96165.09;3945018;34;20012;-85
2022/01/03 02:41:49;;;;;;;14.80;9.35;;;5.00;85.60;;;3.74;81.45;96173.44;3924101;34;20001;-85
2022/01/03 02:44:18;;;;;;;12.80;8.90;;;5.00;85.60;;;3.73;81.36;96175.34;3964925;34;20280;-84
2022/01/03 02:46:45;;;;;;;14.95;9.75;;;5.00;85.60;;;3.74;81.46;96173.44;3986082;34;20634;-85
2022/01/03 02:49:11;;;;;;;12.70;9.05;;;5.00;85.60;;;3.72;80.89;96159.31;3971623;34;19994;-85
2022/01/03 02:51:38;;;;;;;12.40;7.85;;;5.00;85.50;;;3.73;81.34;96160.97;3941787;34;20036;-85
2022/01/03 02:54:04;;;;;;;13.73;9.30;;;5.00;85.50;;;3.73;81.55;96144.72;3904463;34;20056;-87
2022/01/03 02:56:34;;;;;;;11.13;8.07;;;5.00;85.50;;;3.72;81.00;96143.06;3967995;34;20293;-85
2022/01/03 02:59:02;;;;;;;13.35;8.57;;;5.00;85.50;;;3.73;80.93;96144.72;3912782;34;20005;-85
2022/01/03 03:01:29;;;;;;;13.88;8.82;;;5.00;85.60;;;3.73;81.29;96155.56;3947003;34;20647;-85
2022/01/03 03:03:58;;;;;;;13.48;9.38;;;5.00;85.60;;;3.73;81.18;96150.13;3962250;35;20737;-84
2022/01/03 03:06:25;;;;;;;11.20;8.40;;;5.00;85.60;;;3.71;80.93;96158.50;3930348;35;20567;-85
2022/01/03 03:08:52;;;;;;;12.23;8.57;;;5.00;85.60;;;3.71;81.05;96144.97;3924516;35;20295;-86
2022/01/03 03:11:18;;;;;;;11.80;7.90;;;5.00;85.50;;;3.71;81.11;96149.53;3902995;35;20311;-84
2022/01/03 03:13:44;;;;;;;11.43;7.93;;;5.00;85.40;;;3.72;80.82;96162.88;3903592;34;20002;-84
2022/01/03 03:16:11;;;;;;;12.70;8.57;;;5.00;85.40;;;3.72;81.01;96172.84;3922280;34;20292;-85
2022/01/03 03:18:37;;;;;;;11.43;8.25;;;5.00;85.40;;;3.70;80.97;96173.09;3935715;34;20298;-84
2022/01/03 03:21:04;;;;;;;10.93;7.18;;;5.00;85.50;;;3.72;81.05;96167.44;3922662;35;20322;-86
2022/01/03 03:23:30;;;;;;;11.27;7.95;;;5.00;85.60;;;3.69;81.11;96160.59;3930825;34;20009;-85
2022/01/03 03:25:57;;;;;;;10.95;7.70;;;5.00;85.50;;;3.68;81.04;96151.63;3947047;34;20333;-85
2022/01/03 03:28:25;;;;;;;10.95;8.02;;;5.00;85.40;;;3.71;80.92;96163.06;3926391;34;20002;-85
2022/01/03 03:30:54;;;;;;;9.70;7.25;;;5.00;85.40;;;3.69;80.96;96158.72;3969209;34;20060;-85
2022/01/03 03:33:36;;;;;;;11.00;7.45;;;5.00;85.40;;;3.69;80.95;96160.59;3916571;34;20209;-85
2022/01/03 03:36:04;;;;;;;11.23;7.18;;;5.00;85.40;;;3.70;81.16;96151.44;3967406;34;20270;-85
2022/01/03 03:38:31;;;;;;;10.10;6.57;;;4.90;85.40;;;3.68;80.80;96148.94;3943168;35;20093;-85
2022/01/03 03:41:01;;;;;;;10.05;6.63;;;4.90;85.40;;;3.67;80.71;96141.91;3942996;35;20341;-85
2022/01/03 03:43:32;;;;;;;11.32;7.40;;;5.00;85.50;;;3.67;80.86;96139.19;3909731;34;20081;-85
2022/01/03 03:46:02;;;;;;;9.13;6.78;;;5.00;85.50;;;3.69;80.80;96138.94;3946573;34;20289;-85
2022/01/03 03:48:28;;;;;;;9.77;6.88;;;5.00;85.40;;;3.67;80.98;96136.47;3967159;34;20002;-85
2022/01/03 03:50:55;;;;;;;10.85;7.45;;;5.00;85.40;;;3.68;81.15;96134.59;3948623;34;20422;-85
2022/01/03 03:53:22;;;;;;;10.23;6.82;;;5.00;85.50;;;3.67;81.08;96120.22;3926806;34;19978;-85
2022/01/03 03:55:49;;;;;;;8.02;6.35;;;5.00;85.40;;;3.67;81.17;96108.56;3988179;34;20005;-85
2022/01/03 03:58:16;;;;;;;8.32;5.85;;;5.00;85.40;;;3.67;80.85;96104.00;3949378;34;20053;-85
2022/01/03 04:00:43;;;;;;;8.18;5.95;;;4.90;85.40;;;3.67;80.90;96095.03;3961954;35;20206;-85
2022/01/03 04:03:09;;;;;;;9.68;6.88;;;4.90;85.30;;;3.66;81.16;96085.25;3961419;35;20341;-85
2022/01/03 04:05:36;;;;;;;8.23;6.13;;;4.90;85.30;;;3.66;80.95;96077.97;3899403;35;20077;-85
2022/01/03 04:08:03;;;;;;;9.15;6.00;;;4.90;85.40;;;3.66;81.17;96067.16;3920076;35;20655;-85
2022/01/03 04:10:29;;;;;;;9.00;6.45;;;4.90;85.30;;;3.65;80.67;96079.03;3900134;34;20010;-85
2022/01/03 04:12:58;;;;;;;8.32;6.13;;;4.90;85.20;;;3.67;80.99;96092.31;3900905;35;20387;-85
2022/01/03 04:15:24;;;;;;;8.90;6.05;;;4.90;85.30;;;3.65;81.14;96081.72;3899282;35;20045;-85
2022/01/03 04:17:53;;;;;;;7.30;5.35;;;4.90;85.20;;;3.66;80.85;96075.25;3941190;35;19998;-84
2022/01/03 04:20:20;;;;;;;9.23;6.18;;;4.90;85.30;;;3.64;81.08;96074.66;3920187;35;20014;-85
2022/01/03 04:22:47;;;;;;;8.85;5.72;;;4.90;85.30;;;3.64;80.75;96071.97;3920389;35;20018;-85
2022/01/03 04:25:15;;;;;;;7.90;6.13;;;4.90;85.30;;;3.64;80.78;96077.38;3957552;35;20298;-85
2022/01/03 04:27:42;;;;;;;7.20;5.85;;;4.90;85.20;;;3.63;80.87;96089.25;3903242;35;20014;-85
2022/01/03 04:30:10;;;;;;;7.65;6.05;;;4.90;85.30;;;3.65;80.94;96079.03;3922961;35;20010;-85
2022/01/03 04:32:37;;;;;;;7.50;5.03;;;4.90;85.30;;;3.66;80.89;96075.25;3920105;35;20328;-85
2022/01/03 04:35:04;;;;;;;7.63;5.45;;;4.90;85.30;;;3.65;81.01;96083.59;3924414;35;20218;-85
2022/01/03 04:37:30;;;;;;;7.78;5.40;;;4.90;85.30;;;3.64;80.99;96077.38;3921655;35;20588;-86
2022/01/03 04:39:58;;;;;;;7.45;5.43;;;4.90;85.40;;;3.63;80.63;96070.31;3928799;35;20050;-85
2022/01/03 04:42:25;;;;;;;7.70;5.28;;;4.90;85.30;;;3.63;81.16;96064.03;3964282;35;20324;-85
2022/01/03 04:44:52;;;;;;;7.43;5.50;;;4.90;85.40;;;3.65;80.75;96068.19;3902798;35;20304;-85
2022/01/03 04:47:18;;;;;;;7.05;5.65;;;4.90;85.30;;;3.65;81.02;96068.19;3964446;35;20383;-84
2022/01/03 04:49:45;;;;;;;8.23;5.88;;;4.90;85.20;;;3.64;80.68;96058.41;3941245;35;20687;-85
2022/01/03 04:52:11;;;;;;;7.65;5.18;;;4.90;85.20;;;3.63;80.53;96047.81;3940301;35;20009;-84
2022/01/03 04:54:37;;;;;;;7.40;5.78;;;4.90;85.10;;;3.64;80.53;96055.72;3938411;35;21187;-85
2022/01/03 04:57:04;;;;;;;7.00;5.13;;;4.90;85.20;;;3.64;80.75;96055.72;3942829;35;20333;-84
2022/01/03 04:59:32;;;;;;;7.88;5.35;;;4.90;85.20;;;3.64;80.99;96058.41;3942984;35;20027;-85
2022/01/03 05:02:00;;;;;;;6.93;4.93;;;4.90;85.10;;;3.62;81.02;96038.88;3943228;35;20297;-85
2022/01/03 05:04:27;;;;;;;7.07;5.28;;;4.90;85.20;;;3.63;81.01;96032.41;3943126;34;20307;-84
2022/01/03 05:06:54;;;;;;;6.97;5.05;;;4.90;85.20;;;3.62;80.63;96022.63;3905278;34;20286;-85
2022/01/03 05:09:20;;;;;;;6.50;5.13;;;4.90;85.10;;;3.63;80.71;96032.41;3946000;34;20036;-85
2022/01/03 05:11:47;;;;;;;8.13;5.10;;;4.90;85.00;;;3.62;80.53;96038.88;3925838;34;20322;-85
2022/01/03 05:14:14;;;;;;;6.45;4.65;;;4.90;85.00;;;3.62;80.55;96030.75;3946731;34;20356;-85
2022/01/03 05:16:43;;;;;;;7.85;5.00;;;4.90;85.10;;;3.63;80.65;96026.16;3967831;34;20287;-85
2022/01/03 05:19:09;;;;;;;6.07;4.38;;;4.90;85.10;;;3.60;80.51;96016.63;3905839;34;20668;-85
2022/01/03 05:21:37;;;;;;;8.02;5.18;;;4.90;85.10;;;3.62;81.09;96013.66;3988462;34;20354;-85
2022/01/03 05:24:05;;;;;;;6.63;4.95;;;4.90;85.10;;;3.62;80.70;96019.91;3904685;34;20041;-85
2022/01/03 05:26:31;;;;;;;6.13;4.60;;;4.90;85.00;;;3.61;80.73;96017.47;3943978;34;20013;-85
2022/01/03 05:28:58;;;;;;;7.00;4.65;;;4.90;85.10;;;3.60;80.63;96021.22;3965291;34;19996;-85
2022/01/03 05:31:25;;;;;;;6.88;5.25;;;4.90;85.20;;;3.60;81.04;96013.91;3950235;34;20094;-84
2022/01/03 05:33:52;;;;;;;6.63;4.80;;;4.90;85.10;;;3.60;80.81;96011.22;3892179;35;20033;-85
2022/01/03 05:36:18;;;;;;;6.05;4.85;;;4.90;85.10;;;3.59;80.92;96014.97;3911452;35;20293;-85
2022/01/03 05:38:44;;;;;;;6.03;4.38;;;4.90;85.10;;;3.61;80.74;96012.84;3890294;35;20014;-85
2022/01/03 05:41:12;;;;;;;6.13;4.55;;;4.90;85.10;;;3.58;80.77;96010.59;3888646;34;20449;-86
2022/01/03 05:43:39;;;;;;;5.15;3.75;;;4.90;85.10;;;3.59;80.59;96017.66;3908196;34;20622;-86
2022/01/03 05:46:05;;;;;;;5.75;4.05;;;4.80;85.00;;;3.58;80.60;96004.38;3907239;34;20030;-85
2022/01/03 05:48:32;;;;;;;6.80;4.55;;;4.90;85.10;;;3.59;80.44;96003.31;3867987;35;20349;-85
2022/01/03 05:50:58;;;;;;;6.28;4.68;;;4.90;85.00;;;3.59;80.39;96004.13;3870627;35;20277;-85
2022/01/03 05:53:25;;;;;;;6.32;4.57;;;4.80;84.90;;;3.60;80.76;96005.78;3910434;35;20123;-86
2022/01/03 05:55:52;;;;;;;7.32;4.97;;;4.90;85.00;;;3.58;80.58;96007.91;3909309;35;20548;-85
2022/01/03 05:58:18;;;;;;;7.32;5.18;;;4.80;84.90;;;3.59;80.58;96006.84;3910164;34;20411;-85
2022/01/03 06:00:46;;;;;;;6.95;4.80;;;4.80;84.90;;;3.58;80.63;96013.31;3951476;35;20301;-85
2022/01/03 06:03:14;;;;;;;6.55;4.47;;;4.90;85.00;;;3.57;80.56;96016.25;3931061;35;20014;-85
2022/01/03 06:06:03;;;;;;;6.82;5.20;;;4.80;84.90;;;3.58;80.46;96018.72;3913132;34;20393;-85
2022/01/03 06:08:27;;;;;;;9.38;5.72;;;4.80;84.90;;;3.57;80.76;96019.78;3963262;34;20294;-85
2022/01/03 06:10:53;;;;;;;6.65;5.05;;;4.90;84.90;;;3.57;80.74;96021.66;3935094;34;20322;-85
2022/01/03 06:13:24;;;;;;;5.65;3.92;;;4.90;84.90;;;3.56;80.58;96023.53;3978278;34;20582;-85
2022/01/03 06:15:52;;;;;;;6.80;5.07;;;4.90;84.90;;;3.58;80.30;96018.72;3955610;34;20295;-85
2022/01/03 06:18:19;;;;;;;6.50;4.85;;;4.90;84.90;;;3.59;80.53;96017.66;3937641;34;20357;-86
2022/01/03 06:20:49;;;;;;;7.50;5.35;;;4.80;84.80;;;3.60;80.17;96005.78;3981012;34;20394;-85
2022/01/03 06:23:19;;;;;;;7.38;5.15;;;4.90;84.90;;;3.60;80.12;96003.09;3941422;34;20292;-85
2022/01/03 06:25:46;;;;;;;6.53;5.03;;;4.90;84.80;;;3.61;80.22;96003.94;3923031;34;20047;-85
2022/01/03 06:28:15;;;;;;;6.60;5.00;;;4.90;84.90;;;3.61;80.43;95996.63;3961425;34;20312;-84
2022/01/03 06:30:43;;;;;;;8.38;5.43;;;4.90;84.80;;;3.64;80.45;95995.31;3939260;34;20002;-85
2022/01/03 06:33:11;;;;;;;7.47;5.50;;;4.90;84.80;;;3.64;80.39;95981.78;3959383;34;20309;-85
2022/01/03 06:35:37;;;;;;;7.53;5.65;;;4.90;84.80;;;3.65;80.39;95984.28;3984410;34;20010;-85
2022/01/03 06:38:04;;;;;;;7.40;5.82;;;5.00;84.80;;;3.69;80.31;95992.75;4008336;34;20287;-84
2022/01/03 06:40:31;;;;;;;6.97;5.30;;;4.90;84.80;;;3.70;80.41;95991.69;3961388;34;20321;-84
2022/01/03 06:42:58;;;;;;;6.75;5.35;;;4.90;84.90;;;3.73;80.47;95995.81;3921607;34;20326;-85
2022/01/03 06:45:26;;;;;;;7.15;5.28;;;5.00;84.80;;;3.75;80.29;95996.41;3984980;34;20394;-84
2022/01/03 06:47:53;;;;;;;6.97;5.40;;;5.00;84.80;;;3.79;80.57;96008.44;3943386;34;20287;-85
2022/01/03 06:50:20;;;;;;;7.60;5.75;;;5.00;84.80;;;3.79;80.28;95994.91;3964389;34;20045;-84
2022/01/03 06:52:46;;;;;;;7.65;5.95;;;5.00;84.60;;;3.80;80.03;96004.69;3902049;34;20020;-85
2022/01/03 06:55:13;;;;;;;7.47;6.10;;;5.10;84.60;;;3.81;80.13;96003.59;3922240;34;20006;-84
2022/01/03 06:57:43;;;;;;;7.82;6.40;;;5.10;84.60;;;3.81;79.98;96009.00;3964597;34;20258;-84
2022/01/03 07:00:11;;;;;;;9.10;6.88;;;5.10;84.50;;;3.81;80.11;96015.25;3942594;34;20324;-84
2022/01/03 07:02:42;;;;;;;10.05;7.95;;;5.10;84.40;;;3.81;79.86;96022.53;3922922;34;20290;-84
2022/01/03 07:05:10;;;;;;;9.80;7.50;;;5.10;84.30;;;3.81;79.83;96027.97;3923865;34;20013;-84
2022/01/03 07:07:37;;;;;;;9.45;7.13;;;5.10;84.40;;;3.80;80.12;96026.34;3942267;34;20283;-84
2022/01/03 07:10:04;;;;;;;11.07;8.32;;;5.10;84.30;;;3.79;79.89;96019.28;3942714;34;20021;-84
2022/01/03 07:12:31;;;;;;;10.15;7.65;;;5.10;84.30;;;3.79;79.95;96021.97;3942932;34;20304;-84
2022/01/03 07:20:10;;;;;;;11.43;7.88;;;5.10;84.40;;;3.77;80.17;96021.38;3940531;35;20611;-84
2022/01/03 07:22:40;;;;;;;10.45;7.38;;;5.00;84.30;;;3.77;79.98;96029.50;3959371;34;20010;-84
2022/01/03 07:25:08;;;;;;;10.95;8.30;;;5.00;84.30;;;3.77;79.98;96024.91;3938031;35;20057;-84
2022/01/03 07:27:35;;;;;;;10.98;8.27;;;5.00;84.30;;;3.77;80.05;96021.38;3920366;35;20393;-84
2022/01/03 07:30:01;;;;;;;11.02;7.78;;;5.00;84.30;;;3.78;80.20;96021.13;3919756;35;20022;-84
2022/01/03 07:32:28;;;;;;;11.13;8.02;;;5.00;84.30;;;3.79;79.95;96021.97;3920423;35;20282;-84
2022/01/03 07:34:55;;;;;;;10.23;7.85;;;5.10;84.40;;;3.80;80.14;96015.50;3919345;35;20292;-84
2022/01/03 07:37:21;;;;;;;9.70;7.55;;;5.00;84.30;;;3.81;79.65;96009.00;3919525;35;20305;-84
2022/01/03 07:39:48;;;;;;;11.00;8.52;;;5.00;84.10;;;3.82;79.74;96016.06;3961122;35;20318;-84
2022/01/03 07:42:15;;;;;;;10.73;8.15;;;5.10;84.30;;;3.83;79.91;96015.03;3920036;35;20309;-84
2022/01/03 07:44:46;;;;;;;11.30;8.10;;;5.10;84.30;;;3.85;79.88;96018.31;3921374;35;20037;-84
2022/01/03 07:47:13;;;;;;;10.38;7.53;;;5.10;84.40;;;3.90;80.01;96020.34;3982138;35;20385;-84
2022/01/03 07:49:39;;;;;;;11.77;8.32;;;5.10;84.30;;;3.89;80.03;96019.53;3917814;34;20276;-84
2022/01/03 07:52:05;;;;;;;12.20;8.68;;;5.20;84.30;;;3.94;79.56;96026.94;3959334;35;20017;-84
2022/01/03 07:54:32;;;;;;;11.70;8.13;;;5.20;84.30;;;3.96;79.85;96025.66;3957383;35;20310;-84
2022/01/03 07:56:59;;;;;;;11.98;7.97;;;5.20;84.20;;;3.99;79.68;96025.19;3918072;35;20286;-84
2022/01/03 07:59:25;;;;;;;12.07;8.57;;;5.20;84.20;;;4.04;79.74;96020.97;3917744;35;20607;-84
2022/01/03 08:01:51;;;;;;;11.10;8.05;;;5.30;84.10;;;4.07;79.86;96009.63;3939216;35;20187;-84
2022/01/03 08:04:18;;;;;;;12.82;8.90;;;5.30;84.10;;;4.12;79.73;96015.19;3939390;34;20714;-84
2022/01/03 08:06:44;;;;;;;12.00;8.98;;;5.30;84.10;;;4.15;79.17;96007.41;3920619;35;20367;-84
2022/01/03 08:09:10;;;;;;;10.90;8.15;;;5.40;83.90;;;4.19;79.41;96007.78;3920567;35;20294;-84
2022/01/03 08:11:37;;;;;;;13.05;8.50;;;5.40;83.80;;;4.23;79.57;96003.53;3941851;35;20300;-84
2022/01/03 08:14:03;;;;;;;12.30;9.10;;;5.50;83.90;;;4.28;79.07;96010.94;3920616;35;20017;-83
2022/01/03 08:16:30;;;;;;;11.35;7.93;;;5.50;83.70;;;4.32;79.24;96016.75;3920815;35;20626;-84
2022/01/03 08:18:56;;;;;;;11.85;7.93;;;5.50;83.60;;;4.36;78.70;96012.50;3963433;34;20346;-83
2022/01/03 08:21:22;;;;;;;11.55;8.10;;;5.60;83.50;;;4.40;79.00;96010.97;3923393;35;20018;-83
2022/01/03 08:23:49;;;;;;;12.73;8.63;;;5.60;83.30;;;4.43;78.39;95996.94;3963867;34;20316;-84
2022/01/03 08:26:15;;;;;;;13.32;8.80;;;5.60;83.20;;;4.48;78.70;95998.94;3920499;35;20014;-84
2022/01/03 08:28:42;;;;;;;11.45;8.38;;;5.60;83.10;;;4.52;78.20;95997.41;3961219;35;20309;-83
2022/01/03 08:31:08;;;;;;;11.10;8.77;;;5.70;83.00;;;4.56;78.30;95990.44;3944792;35;20017;-84
2022/01/03 08:33:34;;;;;;;13.00;8.52;;;5.80;82.80;;;4.59;77.95;95982.66;3984285;35;20022;-84
2022/01/03 08:36:02;;;;;;;11.15;8.15;;;5.80;82.70;;;4.62;78.13;95984.09;3958680;35;20398;-84
2022/01/03 08:38:28;;;;;;;12.00;8.07;;;5.80;82.40;;;4.66;77.78;95987.13;3945172;35;20568;-83
2022/01/03 08:40:54;;;;;;;11.35;8.10;;;5.80;82.30;;;4.69;77.83;95989.38;3953931;35;20013;-84
2022/01/03 08:43:20;;;;;;;10.45;7.03;;;5.80;82.20;;;4.70;77.77;95977.47;3932701;35;20345;-83
2022/01/03 08:45:47;;;;;;;10.88;7.88;;;5.90;82.10;;;4.72;77.58;95986.16;3911527;35;20680;-84
2022/01/03 08:48:13;;;;;;;11.82;8.07;;;5.90;82.00;;;4.75;77.75;95982.97;3953425;35;20070;-84
2022/01/03 08:50:39;;;;;;;10.52;7.72;;;5.90;81.90;;;4.76;77.27;95973.78;3953142;35;20270;-84
2022/01/03 08:53:07;;;;;;;10.40;7.93;;;6.00;81.80;;;4.78;77.60;95962.72;3933542;35;20552;-84
2022/01/03 08:55:34;;;;;;;9.52;7.20;;;6.00;81.80;;;4.79;77.75;95967.88;3970424;35;20461;-83
2022/01/03 08:58:00;;;;;;;12.55;7.32;;;6.00;81.60;;;4.79;77.19;95959.75;3950314;35;20635;-84
2022/01/03 09:00:26;;;;;;;8.85;6.63;;;6.00;81.70;;;4.80;77.75;95944.28;3929734;35;20006;-84
2022/01/03 09:02:52;;;;;;;9.57;6.45;;;6.00;81.70;;;4.81;77.59;95944.06;3908560;35;20058;-83
2022/01/03 09:05:19;;;;;;;10.00;6.40;;;6.00;81.60;;;4.81;77.24;95941.38;3971520;35;20283;-83
2022/01/03 09:07:45;;;;;;;11.32;6.47;;;6.00;81.60;;;4.83;77.22;95941.09;3953529;35;20017;-84
2022/01/03 09:10:11;;;;;;;10.32;6.95;;;6.10;81.50;;;4.83;77.26;95939.25;3953715;35;20013;-83
2022/01/03 09:12:38;;;;;;;9.25;6.43;;;6.00;81.40;;;4.78;77.30;95928.28;3953325;34;20411;-83
2022/01/03 09:15:05;;;;;;;9.75;6.60;;;6.00;81.30;;;4.77;77.20;95913.06;3975161;35;20302;-83
2022/01/03 09:17:31;;;;;;;9.77;7.03;;;6.00;81.40;;;4.77;77.38;95923.91;3955250;35;20351;-83
2022/01/03 09:19:57;;;;;;;9.65;6.57;;;6.00;81.50;;;4.79;77.48;95924.50;3976791;34;20161;-83
2022/01/03 09:22:31;;;;;;;8.57;5.68;;;6.00;81.50;;;4.79;77.35;95929.09;3998447;35;20302;-83
2022/01/03 09:30:11;;;;;;;6.68;5.43;;;6.00;81.60;;;4.74;77.55;95913.53;3984865;35;20303;-83
2022/01/03 09:32:37;;;;;;;8.85;5.70;;;6.00;81.50;;;4.72;77.36;95913.78;3961814;35;20002;-83
2022/01/03 09:35:05;;;;;;;7.65;5.28;;;6.00;81.60;;;4.71;77.84;95916.75;3959916;34;20288;-83
2022/01/03 09:37:36;;;;;;;7.80;5.57;;;6.00;81.70;;;4.70;77.46;95915.09;3935678;35;20178;-83
2022/01/03 09:40:05;;;;;;;7.10;4.82;;;6.00;81.70;;;4.69;77.46;95905.31;3900487;35;20074;-83
2022/01/03 09:42:31;;;;;;;8.15;4.97;;;6.00;81.80;;;4.67;77.75;95893.88;3983053;35;20033;-83
2022/01/03 09:45:02;;;;;;;7.93;5.15;;;6.00;81.80;;;4.67;77.73;95899.31;3921758;34;20295;-83
2022/01/03 09:47:29;;;;;;;8.68;5.45;;;5.90;81.80;;;4.66;77.95;95887.63;3986649;34;20353;-83
2022/01/03 09:49:55;;;;;;;7.78;4.90;;;5.90;81.80;;;4.65;78.05;95891.41;3944208;34;20017;-83
2022/01/03 09:52:23;;;;;;;7.47;4.80;;;5.90;81.90;;;4.66;77.54;95881.38;3982150;34;20309;-83
2022/01/03 09:54:50;;;;;;;7.35;4.68;;;5.90;81.90;;;4.65;77.68;95877.03;3917646;34;20301;-83
2022/01/03 09:57:20;;;;;;;8.20;4.70;;;5.90;81.90;;;4.65;77.61;95879.75;3963495;34;20028;-83
2022/01/03 09:59:47;;;;;;;9.00;5.05;;;5.90;81.90;;;4.63;77.81;95882.69;3964416;34;20283;-83
2022/01/03 10:02:16;;;;;;;7.60;4.97;;;5.90;81.90;;;4.62;77.68;95881.06;3985761;34;20288;-83
2022/01/03 10:04:42;;;;;;;7.50;4.70;;;5.90;81.90;;;4.58;78.12;95875.25;3985262;34;20357;-83
2022/01/03 10:07:11;;;;;;;7.80;4.43;;;5.90;82.00;;;4.55;78.21;95881.19;3986626;34;20384;-83
2022/01/03 10:09:38;;;;;;;6.07;4.35;;;5.80;82.00;;;4.52;78.24;95880.84;3925167;34;20016;-83
2022/01/03 10:12:09;;;;;;;6.75;3.83;;;5.80;82.10;;;4.51;78.24;95879.22;3904424;34;20296;-83
2022/01/03 10:14:35;;;;;;;6.47;3.97;;;5.80;82.20;;;4.48;78.52;95868.84;3987072;34;20012;-83
2022/01/03 10:17:02;;;;;;;8.32;4.65;;;5.80;82.40;;;4.46;78.36;95871.75;3967159;34;20655;-83
2022/01/03 10:19:28;;;;;;;5.25;3.67;;;5.80;82.40;;;4.45;78.52;95870.97;3903944;34;20209;-83
2022/01/03 10:21:54;;;;;;;6.10;3.80;;;5.70;82.50;;;4.42;78.12;95866.00;3986883;34;20021;-83
2022/01/03 10:24:36;;;;;;;6.57;4.05;;;5.70;82.60;;;4.42;78.88;95867.91;3965023;34;20300;-83
2022/01/03 10:27:03;;;;;;;6.72;4.13;;;5.70;82.70;;;4.41;78.56;95860.84;3904388;34;20006;-83
2022/01/03 10:29:31;;;;;;;6.68;3.83;;;5.70;82.70;;;4.39;78.91;95861.06;3986937;34;20006;-83
2022/01/03 10:32:00;;;;;;;7.22;4.38;;;5.70;82.80;;;4.37;78.47;95854.25;3965662;34;20005;-83
2022/01/03 10:34:27;;;;;;;6.55;4.38;;;5.60;82.80;;;4.35;78.96;95862.63;3944655;34;20304;-83
2022/01/03 10:36:56;;;;;;;7.80;4.35;;;5.60;82.80;;;4.34;79.12;95862.84;3924013;34;20332;-83
2022/01/03 10:39:30;;;;;;;7.30;4.35;;;5.60;82.90;;;4.32;79.00;95887.47;3964339;34;20282;-83
2022/01/03 10:42:26;;;;;;;10.63;5.03;;;5.60;83.00;;;4.28;79.20;95879.00;3963443;34;20616;-83
2022/01/03 10:44:52;;;;;;;10.35;5.70;;;5.60;83.00;;;4.29;78.79;95882.53;3941422;34;20085;-83
2022/01/03 10:47:33;;;;;;;9.02;5.18;;;5.60;83.10;;;4.28;79.34;95883.59;3963442;34;20601;-83